Terminal Aerodrome Forecast
Issued by NWS Wilmington, OH

Current Version | Previous Version | Graphics & Text | Print | Product List | Glossary On
Versions: 1 2 3 4 5 6 7 8 9 10 11 12 13 14 15 16 17 18
000
FTUS41 KILN 212341 AAA
TAFDAY
TAF AMD
KDAY 212341Z 2200/2224 26008KT P6SM OVC110
     FM220100 31013G20KT P6SM VCSH OVC040
      TEMPO 2201/2204 5SM -SHRA OVC025
     FM220600 33008KT P6SM SCT050
     FM221200 34010KT P6SM SCT050
     FM222100 34007KT P6SM SKC=

USA.gov is the U.S. government's official web portal to all federal, state and local government web resources and services.